This is the latest recevied weather packets stored in our database for station/object KB2FWP. If no packets are shown the sender has not sent any weather packets the latest 10 day(s).
| Time | Temp. | Humidity | Pressure | Rain* | Wind** | Luminosity | Snow |
|---|---|---|---|---|---|---|---|
| 1787757351 | 25° C | 67% | 1020.3 hPa | 0 mm | - | - | - |
| 1787756456 | 24.44° C | 66% | 1020.3 hPa | 0 mm | - | - | - |
| 1787755559 | 25° C | 68% | 1020.5 hPa | 0 mm | - | - | - |
| 1787754648 | 26.11° C | 63% | 1020.3 hPa | 0 mm | - | - | - |
| 1787753748 | 25.56° C | 64% | 1020.1 hPa | 0 mm | - | - | - |
| 1787752841 | 25° C | 66% | 1020.2 hPa | 0 mm | - | - | - |
| 1787751939 | 23.89° C | 68% | 1020.1 hPa | 0 mm | - | - | - |
| 1787751038 | 23.89° C | 69% | 1020.2 hPa | 0 mm | - | - | - |
| 1787750133 | 23.33° C | 73% | 1020.2 hPa | 0 mm | - | - | - |
| 1787749229 | 22.22° C | 75% | 1020.3 hPa | 0 mm | - | - | - |
| 1787748326 | 21.67° C | 78% | 1020.5 hPa | 0 mm | - | - | - |
| 1787747423 | 21.11° C | 80% | 1020.4 hPa | 0 mm | - | - | - |
| 1787746523 | 20° C | 83% | 1020.4 hPa | 0 mm | - | - | - |
| 1787745622 | 19.44° C | 86% | 1020.3 hPa | 0 mm | - | - | - |
| 1787744723 | 18.89° C | 88% | 1020.3 hPa | 0 mm | - | - | - |
| 1787743818 | 17.78° C | 89% | 1020 hPa | 0 mm | - | - | - |
| 1787742917 | 17.22° C | 89% | 1020 hPa | 0 mm | - | - | - |
| 1787742015 | 17.22° C | 89% | 1019.8 hPa | 0 mm | - | - | - |
| 1787741116 | 17.22° C | 89% | 1019.7 hPa | 0 mm | - | - | - |
| 1787740213 | 17.22° C | 88% | 1019.5 hPa | 0 mm | - | - | - |
| 1787739312 | 17.22° C | 88% | 1019.4 hPa | 0 mm | - | - | - |
| 1787738409 | 17.78° C | 87% | 1019.2 hPa | 0 mm | - | - | - |
| 1787737507 | 17.78° C | 87% | 1019.3 hPa | 0 mm | - | - | - |
| 1787736605 | 17.78° C | 86% | 1019.1 hPa | 0 mm | - | - | - |
| 1787735705 | 17.78° C | 86% | 1019 hPa | 0 mm | - | - | - |
* Rain latest hour (hover to see other rain measurements)
** Current wind speed in m/s (hover to see current wind gust speed)